Time;durP1;ratioP1;P1;durP2;ratioP2;P2;SDS_P1;SDS_P2;PMS_P1;PMS_P2;Temp;Humidity;BMP_temperature;BMP_pressure;BME280_temperature;BME280_humidity;BME280_pressure;Samples;Min_cycle;Max_cycle;Signal;HPM_P1;HPM_P2
2023/04/09 00:01:33;;;;;;;4.65;1.90;;;11.20;56.30;;;;;;2461232;55;21353;-69
2023/04/09 00:04:00;;;;;;;3.70;1.77;;;11.20;56.40;;;;;;2460109;55;21059;-69
2023/04/09 00:06:26;;;;;;;4.07;2.20;;;11.10;56.50;;;;;;2240798;56;21000;-70
2023/04/09 00:08:53;;;;;;;3.83;1.80;;;11.10;56.50;;;;;;2463395;55;21490;-71
2023/04/09 00:11:20;;;;;;;4.78;2.17;;;11.00;56.50;;;;;;2460814;55;20982;-69
2023/04/09 00:13:46;;;;;;;4.47;1.92;;;11.00;56.50;;;;;;2237203;55;21006;-69
2023/04/09 00:16:13;;;;;;;4.05;2.10;;;10.90;56.50;;;;;;2236923;55;20962;-70
2023/04/09 00:18:39;;;;;;;3.75;1.90;;;10.90;56.60;;;;;;2461350;55;21429;-70
2023/04/09 00:21:07;;;;;;;3.47;2.05;;;10.90;56.70;;;;;;2237546;55;20966;-70
2023/04/09 00:23:34;;;;;;;4.35;2.45;;;10.80;56.60;;;;;;2461185;55;21045;-70
2023/04/09 00:26:00;;;;;;;3.67;2.10;;;10.80;56.80;;;;;;2242183;56;21490;-70
2023/04/09 00:28:26;;;;;;;3.60;2.20;;;10.80;56.80;;;;;;2460878;55;20979;-70
2023/04/09 00:30:53;;;;;;;4.15;2.15;;;10.70;56.80;;;;;;2461880;55;20962;-70
2023/04/09 00:33:20;;;;;;;3.67;2.08;;;10.70;56.90;;;;;;2237689;56;21451;-69
2023/04/09 00:35:46;;;;;;;5.05;2.30;;;10.70;57.00;;;;;;2238243;56;20938;-70
2023/04/09 00:38:12;;;;;;;5.18;2.33;;;10.60;57.00;;;;;;2237708;56;21031;-71
2023/04/09 00:40:39;;;;;;;3.40;2.00;;;10.60;57.10;;;;;;2459970;55;21812;-69
2023/04/09 00:43:06;;;;;;;3.75;2.05;;;10.60;57.10;;;;;;2461873;55;21021;-71
2023/04/09 00:45:32;;;;;;;4.40;2.05;;;10.60;57.10;;;;;;2469296;55;20930;-70
2023/04/09 00:48:00;;;;;;;3.10;1.70;;;10.60;57.10;;;;;;2460762;55;21040;-69
2023/04/09 00:50:26;;;;;;;3.70;2.08;;;10.50;57.00;;;;;;2461820;55;21059;-70
2023/04/09 00:52:52;;;;;;;3.58;1.80;;;10.50;57.00;;;;;;2464494;55;21021;-71
2023/04/09 00:55:19;;;;;;;4.47;2.28;;;10.50;56.90;;;;;;2240977;56;20979;-69
2023/04/09 00:57:46;;;;;;;4.05;2.25;;;10.50;56.90;;;;;;2237975;56;21003;-69
2023/04/09 01:00:13;;;;;;;4.28;2.20;;;10.50;56.90;;;;;;2461741;55;21053;-69
2023/04/09 01:02:40;;;;;;;4.12;2.33;;;10.40;56.80;;;;;;2468515;55;21578;-71
2023/04/09 01:05:06;;;;;;;3.90;2.33;;;10.40;56.80;;;;;;2238495;56;20971;-69
2023/04/09 01:11:11;;;;;;;4.22;2.58;;;10.40;56.80;;;;;;2460905;55;21023;-71
2023/04/09 01:15:19;;;;;;;4.50;2.70;;;10.30;56.40;;;;;;2448815;56;21715;-70
2023/04/09 01:18:05;;;;;;;4.25;2.53;;;10.20;56.60;;;;;;2238363;55;21819;-69
2023/04/09 01:20:58;;;;;;;5.25;3.12;;;10.10;56.80;;;;;;2248093;55;21132;-71
2023/04/09 01:23:46;;;;;;;4.95;3.17;;;10.10;56.90;;;;;;2461406;55;20962;-69
2023/04/09 01:27:13;;;;;;;5.62;3.35;;;10.10;57.10;;;;;;2460492;55;20962;-69
2023/04/09 01:29:45;;;;;;;4.60;2.65;;;10.00;56.70;;;;;;2237336;56;20951;-69
2023/04/09 01:32:11;;;;;;;4.37;2.83;;;10.00;57.10;;;;;;2452972;55;21784;-70
2023/04/09 01:34:37;;;;;;;5.10;3.00;;;9.90;57.90;;;;;;2461031;55;20954;-71
2023/04/09 01:37:04;;;;;;;5.22;2.90;;;9.90;57.90;;;;;;2459435;55;20968;-70
2023/04/09 01:39:31;;;;;;;5.45;3.42;;;9.80;57.80;;;;;;2237717;56;20956;-70
2023/04/09 01:41:57;;;;;;;6.12;3.08;;;9.80;57.90;;;;;;2464317;55;20952;-70
2023/04/09 01:44:25;;;;;;;15.38;6.70;;;9.80;58.00;;;;;;2244679;55;21467;-69
2023/04/09 01:46:51;;;;;;;22.98;9.77;;;9.70;57.80;;;;;;2234390;56;21053;-70
2023/04/09 01:49:17;;;;;;;45.00;15.82;;;9.70;57.80;;;;;;2460926;55;20958;-69
2023/04/09 01:51:43;;;;;;;75.62;27.35;;;9.70;57.90;;;;;;2458710;55;20954;-69
2023/04/09 01:54:10;;;;;;;68.25;25.75;;;9.60;57.80;;;;;;2237502;56;21066;-69
2023/04/09 01:56:43;;;;;;;63.45;21.73;;;9.60;57.80;;;;;;2453877;55;21467;-69
2023/04/09 01:59:09;;;;;;;56.05;21.23;;;9.50;57.70;;;;;;2460135;55;21508;-69
2023/04/09 02:01:43;;;;;;;42.40;15.73;;;9.50;57.80;;;;;;2237650;56;21947;-69
2023/04/09 02:04:23;;;;;;;38.00;14.65;;;9.50;57.80;;;;;;2492358;55;20958;-70
2023/04/09 02:07:41;;;;;;;32.60;12.77;;;9.40;57.80;;;;;;2492869;55;21026;-69
2023/04/09 02:10:10;;;;;;;18.20;7.30;;;9.40;57.70;;;;;;2492203;55;21443;-69
2023/04/09 02:12:39;;;;;;;14.90;5.80;;;9.30;57.70;;;;;;2263605;56;21018;-69
2023/04/09 02:15:06;;;;;;;12.10;5.00;;;9.30;57.70;;;;;;2491962;55;21046;-69
2023/04/09 02:17:32;;;;;;;8.68;3.65;;;9.20;57.70;;;;;;2263656;56;21105;-68
2023/04/09 02:19:58;;;;;;;5.07;3.10;;;9.20;57.70;;;;;;2244133;56;20978;-70
2023/04/09 02:22:25;;;;;;;7.22;3.00;;;9.10;57.70;;;;;;2476065;55;20966;-70
2023/04/09 02:24:53;;;;;;;5.00;2.55;;;9.10;57.70;;;;;;2482046;55;20982;-70
2023/04/09 02:27:19;;;;;;;4.20;2.08;;;9.00;57.70;;;;;;2491748;55;20997;-70
2023/04/09 02:29:45;;;;;;;3.60;1.67;;;9.00;57.70;;;;;;2262913;56;21054;-70
2023/04/09 02:32:12;;;;;;;4.20;2.20;;;8.90;57.70;;;;;;2262921;56;21422;-68
2023/04/09 02:34:40;;;;;;;4.22;2.05;;;8.90;57.70;;;;;;2263145;56;21018;-69
2023/04/09 02:37:06;;;;;;;4.78;2.17;;;8.90;57.70;;;;;;2262797;56;20994;-68
2023/04/09 02:39:32;;;;;;;2.90;1.62;;;8.80;57.70;;;;;;2491960;55;21749;-70
2023/04/09 02:41:59;;;;;;;4.25;1.77;;;8.80;57.70;;;;;;2491409;55;20966;-70
2023/04/09 02:44:26;;;;;;;4.15;2.03;;;8.70;57.60;;;;;;2262815;56;21002;-68
2023/04/09 02:46:57;;;;;;;4.07;2.28;;;8.70;57.60;;;;;;2263447;56;21061;-68
2023/04/09 02:49:23;;;;;;;4.03;1.95;;;8.60;57.60;;;;;;2491558;55;20954;-69
2023/04/09 02:51:49;;;;;;;4.35;2.47;;;8.50;57.60;;;;;;2263263;56;20966;-69
2023/04/09 02:54:16;;;;;;;4.03;2.20;;;8.50;57.60;;;;;;2262755;56;20978;-69
2023/04/09 02:56:44;;;;;;;4.45;2.10;;;8.50;57.70;;;;;;2492079;55;20966;-70
2023/04/09 02:59:10;;;;;;;3.95;2.10;;;8.40;57.60;;;;;;2458754;55;21899;-69
2023/04/09 03:01:36;;;;;;;4.70;2.33;;;8.30;57.60;;;;;;2452300;56;21568;-69
2023/04/09 03:04:03;;;;;;;4.85;2.37;;;8.30;57.70;;;;;;2232752;55;20933;-69
2023/04/09 03:06:30;;;;;;;4.25;2.30;;;8.30;57.70;;;;;;2461227;55;20998;-70
2023/04/09 03:08:56;;;;;;;3.90;2.25;;;8.20;57.70;;;;;;2237976;56;20957;-70
2023/04/09 03:11:22;;;;;;;4.43;2.20;;;8.20;57.70;;;;;;2236444;56;21017;-69
2023/04/09 03:13:49;;;;;;;4.50;2.80;;;8.10;57.80;;;;;;2237248;56;21447;-70
2023/04/09 03:16:15;;;;;;;4.50;2.55;;;8.10;57.80;;;;;;2237091;56;20988;-69
2023/04/09 03:18:41;;;;;;;5.25;2.45;;;8.10;57.90;;;;;;2461418;55;20976;-69
2023/04/09 03:21:08;;;;;;;4.35;2.45;;;8.00;57.90;;;;;;2460723;55;21611;-70
2023/04/09 03:23:34;;;;;;;4.28;2.47;;;8.00;57.90;;;;;;2461081;55;20951;-68
2023/04/09 03:26:04;;;;;;;4.90;2.60;;;7.90;57.90;;;;;;2460662;55;20951;-70
2023/04/09 03:28:30;;;;;;;5.47;3.20;;;7.90;57.90;;;;;;2237050;56;20968;-68
2023/04/09 03:30:56;;;;;;;6.78;3.60;;;7.90;58.00;;;;;;2461182;55;20915;-69
2023/04/09 03:33:23;;;;;;;5.82;3.00;;;7.80;58.00;;;;;;2242458;56;20993;-70
2023/04/09 03:35:51;;;;;;;4.82;2.90;;;7.80;58.00;;;;;;2460944;55;20935;-69
2023/04/09 03:38:19;;;;;;;5.87;3.45;;;7.80;58.00;;;;;;2237796;56;20959;-69
2023/04/09 03:40:45;;;;;;;5.07;3.15;;;7.80;58.10;;;;;;2461068;55;20963;-69
2023/04/09 03:43:12;;;;;;;5.43;3.37;;;7.70;58.10;;;;;;2237087;56;21696;-69
2023/04/09 03:45:38;;;;;;;6.45;3.95;;;7.70;58.20;;;;;;2461115;55;21718;-69
2023/04/09 03:48:04;;;;;;;5.97;3.78;;;7.70;58.30;;;;;;2242602;56;20933;-69
2023/04/09 03:50:36;;;;;;;6.75;4.15;;;7.50;58.30;;;;;;2461356;55;20955;-68
2023/04/09 03:53:04;;;;;;;8.50;4.85;;;7.70;58.60;;;;;;2460686;55;21011;-70
2023/04/09 03:55:31;;;;;;;39.85;18.73;;;7.70;58.70;;;;;;2237058;56;21006;-70
2023/04/09 03:58:02;;;;;;;62.58;31.00;;;7.70;58.80;;;;;;2237182;56;20966;-70
2023/04/09 04:00:28;;;;;;;47.72;23.80;;;7.70;59.00;;;;;;2237241;56;20990;-69
2023/04/09 04:02:54;;;;;;;28.20;14.27;;;7.70;59.10;;;;;;2237033;56;21012;-70
2023/04/09 04:05:23;;;;;;;19.25;10.77;;;7.70;59.20;;;;;;2236469;56;21011;-69
2023/04/09 04:07:53;;;;;;;13.05;7.95;;;7.70;59.40;;;;;;2225689;56;21014;-69
2023/04/09 04:10:19;;;;;;;11.27;7.20;;;7.80;59.60;;;;;;2457460;55;20964;-69
2023/04/09 04:12:45;;;;;;;10.10;5.82;;;7.80;59.60;;;;;;2461072;55;21001;-68
2023/04/09 04:15:11;;;;;;;9.50;5.82;;;7.80;59.70;;;;;;2240523;56;20963;-69
2023/04/09 04:17:38;;;;;;;11.30;5.95;;;7.90;59.80;;;;;;2449874;55;21292;-68
2023/04/09 04:20:05;;;;;;;7.60;5.05;;;7.90;59.90;;;;;;2487040;55;21058;-71
2023/04/09 04:22:34;;;;;;;8.98;5.60;;;7.90;59.90;;;;;;2484466;55;21041;-70
2023/04/09 04:25:00;;;;;;;8.02;5.22;;;8.00;60.00;;;;;;2249367;56;21010;-69
2023/04/09 04:27:27;;;;;;;8.93;4.85;;;8.10;60.10;;;;;;2263457;56;20945;-69
2023/04/09 04:29:53;;;;;;;9.43;5.45;;;8.10;60.10;;;;;;2466370;55;21438;-69
2023/04/09 04:32:20;;;;;;;8.50;5.00;;;8.10;60.10;;;;;;2263589;56;21013;-70
2023/04/09 04:34:48;;;;;;;8.00;5.07;;;8.20;60.10;;;;;;2237784;56;20954;-69
2023/04/09 04:37:15;;;;;;;6.85;4.70;;;8.20;60.10;;;;;;2237386;56;20942;-69
2023/04/09 04:39:41;;;;;;;8.68;5.15;;;8.30;60.30;;;;;;2237894;56;21030;-71
2023/04/09 04:42:07;;;;;;;8.63;5.25;;;8.30;60.20;;;;;;2460803;55;20971;-70
2023/04/09 04:44:34;;;;;;;8.90;5.57;;;8.30;60.30;;;;;;2239863;56;21695;-69
2023/04/09 04:47:00;;;;;;;8.55;5.43;;;8.40;60.30;;;;;;2464036;55;21019;-70
2023/04/09 04:49:26;;;;;;;7.62;4.97;;;8.40;60.30;;;;;;2237615;56;21023;-70
2023/04/09 04:51:53;;;;;;;8.93;5.40;;;8.40;60.30;;;;;;2237246;56;21346;-69
2023/04/09 04:54:19;;;;;;;8.52;5.35;;;8.50;60.40;;;;;;2461028;55;21077;-69
2023/04/09 04:56:46;;;;;;;8.38;5.12;;;8.50;60.40;;;;;;2237100;56;21106;-69
2023/04/09 04:59:12;;;;;;;7.00;4.57;;;8.60;60.50;;;;;;2461037;55;20927;-68
2023/04/09 05:01:38;;;;;;;7.93;5.10;;;8.60;60.40;;;;;;2461214;55;21014;-70
2023/04/09 05:04:05;;;;;;;9.32;5.75;;;8.60;60.40;;;;;;2237626;56;20982;-69
2023/04/09 05:06:32;;;;;;;11.32;7.50;;;8.70;60.50;;;;;;2452893;56;21460;-71
2023/04/09 05:09:00;;;;;;;10.63;7.00;;;8.70;60.40;;;;;;2237778;56;21050;-70
2023/04/09 05:11:27;;;;;;;10.07;6.28;;;8.70;60.30;;;;;;2237503;56;21011;-69
2023/04/09 05:13:53;;;;;;;10.38;7.03;;;8.80;60.30;;;;;;2461510;55;21038;-69
2023/04/09 05:16:19;;;;;;;9.50;6.12;;;8.80;60.20;;;;;;2460653;55;20969;-70
2023/04/09 05:18:46;;;;;;;8.93;5.95;;;8.80;60.10;;;;;;2242901;56;21544;-69
2023/04/09 05:21:12;;;;;;;9.55;6.00;;;8.80;60.00;;;;;;2237410;56;21002;-69
2023/04/09 05:23:38;;;;;;;9.27;5.62;;;8.80;60.00;;;;;;2460579;55;20951;-69
2023/04/09 05:26:04;;;;;;;7.47;5.10;;;8.80;59.90;;;;;;2460927;55;20976;-70
2023/04/09 05:28:31;;;;;;;8.30;4.97;;;8.80;59.80;;;;;;2467676;55;21630;-69
2023/04/09 05:30:58;;;;;;;7.62;4.82;;;8.80;59.80;;;;;;2461426;55;21478;-69
2023/04/09 05:33:28;;;;;;;8.63;5.50;;;8.80;59.80;;;;;;2430867;55;1760394;-69
2023/04/09 05:35:54;;;;;;;7.85;4.93;;;8.70;59.70;;;;;;2236868;55;20985;-69
2023/04/09 05:38:20;;;;;;;8.35;5.60;;;8.70;59.70;;;;;;2237197;55;21808;-70
2023/04/09 05:40:47;;;;;;;8.48;5.45;;;8.70;59.70;;;;;;2461142;55;21054;-69
2023/04/09 05:43:14;;;;;;;9.35;6.05;;;8.70;59.70;;;;;;2236686;55;21077;-70
2023/04/09 05:45:41;;;;;;;9.52;6.28;;;8.70;59.60;;;;;;2464079;55;20926;-68
2023/04/09 05:48:09;;;;;;;8.82;5.40;;;8.70;59.60;;;;;;2447608;55;20931;-69
2023/04/09 05:50:36;;;;;;;8.27;5.80;;;8.70;59.60;;;;;;2460132;55;20954;-70
2023/04/09 05:53:09;;;;;;;7.03;4.82;;;8.60;59.50;;;;;;2236960;55;21450;-68
2023/04/09 05:55:37;;;;;;;7.37;4.75;;;8.60;59.50;;;;;;2237033;56;20952;-69
2023/04/09 05:58:03;;;;;;;8.77;5.55;;;8.60;59.50;;;;;;2460197;55;21988;-69
2023/04/09 06:00:31;;;;;;;7.40;4.75;;;8.60;59.50;;;;;;2237389;56;20945;-70
2023/04/09 06:02:58;;;;;;;8.10;5.20;;;8.50;59.50;;;;;;2467437;55;21989;-70
2023/04/09 06:05:25;;;;;;;8.68;5.22;;;8.50;59.50;;;;;;2459229;55;20964;-69
2023/04/09 06:07:52;;;;;;;6.75;4.60;;;8.50;59.50;;;;;;2232423;57;21042;-72
2023/04/09 06:10:20;;;;;;;6.95;4.85;;;8.50;59.60;;;;;;2238232;56;21025;-69
2023/04/09 06:12:47;;;;;;;7.03;4.70;;;8.50;59.60;;;;;;2460691;55;20962;-69
2023/04/09 06:15:15;;;;;;;6.97;4.05;;;8.50;59.70;;;;;;2460935;55;21035;-70
2023/04/09 06:17:41;;;;;;;8.32;5.10;;;8.50;59.70;;;;;;2460939;55;21414;-68
2023/04/09 06:20:12;;;;;;;7.75;4.55;;;8.50;59.80;;;;;;2237808;56;20989;-69
2023/04/09 06:22:39;;;;;;;7.55;4.78;;;8.50;59.80;;;;;;2238173;56;20927;-69
2023/04/09 06:25:06;;;;;;;9.20;5.10;;;8.50;59.90;;;;;;2238061;56;21023;-70
2023/04/09 06:27:35;;;;;;;8.60;4.85;;;8.50;60.00;;;;;;2461482;55;20975;-69
2023/04/09 06:30:03;;;;;;;8.75;5.35;;;8.50;60.00;;;;;;2237968;56;20991;-69
2023/04/09 06:32:29;;;;;;;8.65;5.18;;;8.50;60.10;;;;;;2461245;55;20992;-69
2023/04/09 06:34:56;;;;;;;9.05;5.30;;;8.50;60.20;;;;;;2461847;55;20938;-70
2023/04/09 06:37:23;;;;;;;10.52;5.70;;;8.50;60.30;;;;;;2485143;54;21003;-70
2023/04/09 06:39:51;;;;;;;8.73;5.72;;;8.50;60.40;;;;;;2262907;56;21064;-70
2023/04/09 06:42:23;;;;;;;8.18;5.25;;;8.60;60.70;;;;;;2453747;56;21063;-69
2023/04/09 06:44:51;;;;;;;8.02;4.70;;;8.60;60.90;;;;;;2461502;55;20930;-70
2023/04/09 06:47:17;;;;;;;7.78;4.78;;;8.70;61.10;;;;;;2237653;56;21082;-70
2023/04/09 06:49:43;;;;;;;8.85;6.00;;;8.70;61.20;;;;;;2467519;55;20953;-70
2023/04/09 06:52:11;;;;;;;9.88;6.10;;;8.80;61.40;;;;;;2461046;55;20999;-70
2023/04/09 06:54:41;;;;;;;9.57;6.32;;;8.90;61.70;;;;;;2238056;56;20963;-70
2023/04/09 06:57:07;;;;;;;9.15;5.45;;;8.90;62.10;;;;;;2238192;56;21038;-70
2023/04/09 06:59:34;;;;;;;8.63;5.70;;;9.10;62.90;;;;;;2238120;56;20939;-70
2023/04/09 07:02:01;;;;;;;9.98;6.03;;;9.20;63.20;;;;;;2460887;55;21004;-71
2023/04/09 07:04:27;;;;;;;8.80;5.35;;;9.30;63.60;;;;;;2237947;56;20943;-69
2023/04/09 07:06:55;;;;;;;9.25;6.20;;;9.50;63.70;;;;;;2261793;56;21019;-71
2023/04/09 07:09:24;;;;;;;10.65;6.95;;;9.60;64.00;;;;;;2462369;55;21320;-70
2023/04/09 07:11:51;;;;;;;8.55;6.18;;;9.80;64.30;;;;;;2238589;55;20957;-71
2023/04/09 07:14:17;;;;;;;9.32;6.40;;;9.90;64.40;;;;;;2461188;55;21421;-69
2023/04/09 07:16:45;;;;;;;10.57;6.72;;;10.10;63.30;;;;;;2237461;55;21049;-71
2023/04/09 07:19:11;;;;;;;10.82;7.35;;;10.30;63.40;;;;;;2242049;56;21006;-70
2023/04/09 07:21:38;;;;;;;10.27;7.03;;;10.50;63.70;;;;;;2245419;56;20991;-71
2023/04/09 07:24:09;;;;;;;9.55;6.60;;;10.70;64.00;;;;;;2472013;55;20994;-70
2023/04/09 07:26:36;;;;;;;9.10;6.07;;;10.90;64.20;;;;;;2436690;55;21772;-70
2023/04/09 07:29:03;;;;;;;8.00;5.37;;;11.10;64.30;;;;;;2238238;55;20950;-72
2023/04/09 07:31:31;;;;;;;7.50;5.30;;;11.30;64.30;;;;;;2470667;55;20940;-71
2023/04/09 07:33:58;;;;;;;6.87;5.28;;;11.50;64.20;;;;;;2458046;55;21014;-72
2023/04/09 07:36:26;;;;;;;7.70;5.43;;;11.70;64.10;;;;;;2237912;56;20934;-73
2023/04/09 07:38:52;;;;;;;9.05;6.25;;;11.80;64.10;;;;;;2461479;55;20931;-72
2023/04/09 07:41:19;;;;;;;9.10;6.40;;;12.00;64.00;;;;;;2460300;55;21907;-70
2023/04/09 07:43:45;;;;;;;9.68;5.97;;;12.30;64.00;;;;;;2236763;56;21615;-69
2023/04/09 07:46:23;;;;;;;8.27;6.07;;;12.40;63.80;;;;;;2461521;55;20955;-71
2023/04/09 07:48:49;;;;;;;8.40;5.97;;;12.50;63.60;;;;;;2238405;56;21467;-73
2023/04/09 07:51:18;;;;;;;8.65;5.93;;;12.70;63.70;;;;;;2461666;55;20959;-71
2023/04/09 07:53:44;;;;;;;7.80;5.60;;;12.80;64.30;;;;;;2461386;55;20951;-71
2023/04/09 07:56:11;;;;;;;7.35;5.87;;;13.00;63.50;;;;;;2237839;55;21872;-71
2023/04/09 07:58:37;;;;;;;9.13;6.32;;;13.10;63.10;;;;;;2238514;55;20941;-70
2023/04/09 08:01:04;;;;;;;8.70;5.72;;;13.20;62.60;;;;;;2461741;55;20930;-71
2023/04/09 08:03:30;;;;;;;8.88;6.05;;;13.30;62.20;;;;;;2237857;55;20941;-72
2023/04/09 08:05:58;;;;;;;7.15;5.20;;;13.40;61.80;;;;;;2478359;55;20957;-71
2023/04/09 08:08:24;;;;;;;8.30;6.20;;;13.50;61.50;;;;;;2238388;55;20998;-72
2023/04/09 08:10:51;;;;;;;8.48;6.10;;;13.50;61.40;;;;;;2237957;55;20966;-72
2023/04/09 08:13:17;;;;;;;8.65;6.03;;;13.60;62.20;;;;;;2461793;55;20945;-71
2023/04/09 08:15:43;;;;;;;8.75;6.20;;;13.70;61.50;;;;;;2238351;55;20957;-71
2023/04/09 08:18:10;;;;;;;9.98;6.97;;;13.70;61.30;;;;;;2461560;55;20937;-75
2023/04/09 08:20:36;;;;;;;9.70;7.05;;;13.80;61.30;;;;;;2461923;55;21076;-71
2023/04/09 08:23:03;;;;;;;8.32;5.60;;;13.90;61.40;;;;;;2466427;55;22257;-71
2023/04/09 08:25:32;;;;;;;7.65;5.22;;;14.00;61.60;;;;;;2230601;56;21006;-72
2023/04/09 08:27:59;;;;;;;7.32;5.00;;;14.10;61.20;;;;;;2238406;56;21443;-71
2023/04/09 08:30:25;;;;;;;6.53;4.70;;;14.20;61.40;;;;;;2237810;56;20933;-71
2023/04/09 08:32:52;;;;;;;7.03;4.93;;;14.30;61.50;;;;;;2467563;55;20947;-71
2023/04/09 08:35:18;;;;;;;6.10;4.22;;;14.40;61.40;;;;;;2461324;55;20939;-71
2023/04/09 08:37:45;;;;;;;6.22;4.30;;;14.50;61.00;;;;;;2237496;56;20955;-72
2023/04/09 08:40:12;;;;;;;7.43;4.95;;;14.60;60.80;;;;;;2237256;56;21015;-72
2023/04/09 08:42:42;;;;;;;6.25;4.32;;;14.70;60.60;;;;;;2461315;55;21022;-71
2023/04/09 08:45:10;;;;;;;5.72;3.70;;;14.80;61.40;;;;;;2460876;55;21001;-72
2023/04/09 08:47:41;;;;;;;5.70;4.00;;;14.90;60.90;;;;;;2224730;56;20948;-71
2023/04/09 08:50:08;;;;;;;6.80;3.90;;;15.10;61.00;;;;;;2460856;55;21007;-72
2023/04/09 08:52:34;;;;;;;6.07;3.90;;;15.20;60.90;;;;;;2461613;55;21071;-72
2023/04/09 08:55:00;;;;;;;6.12;4.25;;;15.30;60.80;;;;;;2461446;55;21007;-71
2023/04/09 08:57:27;;;;;;;5.18;3.47;;;15.50;60.90;;;;;;2460912;55;20959;-73
2023/04/09 08:59:53;;;;;;;5.90;3.97;;;15.60;60.90;;;;;;2461411;55;20967;-72
2023/04/09 09:02:19;;;;;;;5.68;3.53;;;15.70;60.50;;;;;;2460117;55;21939;-73
2023/04/09 09:04:49;;;;;;;4.97;3.58;;;15.90;60.40;;;;;;2236262;56;21058;-73
2023/04/09 09:07:15;;;;;;;5.50;3.50;;;16.00;60.10;;;;;;2460334;55;21041;-71
2023/04/09 09:11:34;;;;;;;5.90;3.92;;;16.20;60.20;;;;;;2238031;55;21575;-73
2023/04/09 09:14:10;;;;;;;4.80;2.97;;;16.50;59.00;;;;;;2459956;55;20958;-73
2023/04/09 09:16:41;;;;;;;5.10;3.80;;;16.60;59.50;;;;;;2241621;55;21024;-72
2023/04/09 09:19:29;;;;;;;5.60;3.50;;;16.70;59.80;;;;;;2232283;56;21113;-73
2023/04/09 09:22:00;;;;;;;5.35;3.10;;;16.90;59.70;;;;;;2460083;55;21339;-72
2023/04/09 09:24:26;;;;;;;4.18;2.65;;;17.10;59.40;;;;;;2460228;55;21052;-72
2023/04/09 09:26:53;;;;;;;4.85;3.10;;;17.20;59.50;;;;;;2236906;55;21022;-74
2023/04/09 09:29:20;;;;;;;5.00;3.15;;;17.30;59.30;;;;;;2460134;55;20990;-73
2023/04/09 09:31:50;;;;;;;5.45;3.47;;;17.40;59.00;;;;;;2461447;55;20949;-73
2023/04/09 09:34:17;;;;;;;5.15;2.95;;;17.50;58.40;;;;;;2459016;55;21398;-75
2023/04/09 09:36:44;;;;;;;3.92;2.60;;;17.60;58.70;;;;;;2459835;55;21001;-72
2023/04/09 09:39:11;;;;;;;3.90;2.28;;;17.70;58.60;;;;;;2460194;55;20965;-72
2023/04/09 09:41:40;;;;;;;3.55;2.17;;;17.90;58.30;;;;;;2460613;55;21032;-74
2023/04/09 09:44:07;;;;;;;3.87;1.92;;;18.00;58.00;;;;;;2460558;55;21000;-74
2023/04/09 09:46:40;;;;;;;4.32;2.50;;;18.20;58.10;;;;;;2461093;55;21518;-71
2023/04/09 09:49:08;;;;;;;3.70;2.00;;;18.20;57.60;;;;;;2454244;55;21130;-72
2023/04/09 09:51:44;;;;;;;3.80;2.22;;;18.40;57.40;;;;;;2225396;57;21056;-75
2023/04/09 09:54:11;;;;;;;3.92;2.40;;;18.50;56.80;;;;;;2460573;55;20961;-73
2023/04/09 09:56:38;;;;;;;3.10;1.67;;;18.60;57.40;;;;;;2460064;55;21079;-75
2023/04/09 09:59:20;;;;;;;3.20;1.80;;;18.70;57.20;;;;;;2479002;55;20918;-77
2023/04/09 10:01:47;;;;;;;;;;;18.80;56.40;;;;;;2470363;55;21057;-76
2023/04/09 10:04:14;;;;;;;3.00;1.80;;;18.90;56.10;;;;;;2459453;55;20402;-75
2023/04/09 10:06:44;;;;;;;4.12;2.12;;;19.00;56.80;;;;;;2461055;55;20918;-74
2023/04/09 10:09:12;;;;;;;3.45;1.90;;;19.10;55.90;;;;;;2237765;56;20984;-74
2023/04/09 10:11:41;;;;;;;3.30;1.80;;;19.10;56.00;;;;;;2237593;56;21025;-74
2023/04/09 10:14:08;;;;;;;3.20;1.90;;;19.20;55.70;;;;;;2460578;55;20942;-74
2023/04/09 10:16:35;;;;;;;3.92;1.80;;;19.20;55.40;;;;;;2237085;56;21096;-75
2023/04/09 10:19:02;;;;;;;2.85;1.60;;;19.30;55.20;;;;;;2460241;55;20996;-75
2023/04/09 10:21:52;;;;;;;3.25;1.62;;;19.30;54.80;;;;;;2466644;55;21568;-72
2023/04/09 10:24:18;;;;;;;3.72;1.87;;;19.20;53.90;;;;;;2461033;55;21449;-75
2023/04/09 10:26:45;;;;;;;2.92;1.62;;;19.20;54.20;;;;;;2237477;56;20996;-74
2023/04/09 10:29:13;;;;;;;2.83;1.62;;;19.20;54.00;;;;;;2460438;55;21038;-74
2023/04/09 10:32:19;;;;;;;3.35;1.75;;;19.20;53.90;;;;;;2236690;56;20987;-75
2023/04/09 10:34:46;;;;;;;3.28;1.90;;;19.10;52.00;;;;;;2452185;55;20990;-76
2023/04/09 10:37:19;;;;;;;3.30;1.80;;;19.10;53.30;;;;;;2237038;56;21007;-75
2023/04/09 10:39:46;;;;;;;3.90;1.90;;;19.00;52.60;;;;;;2460595;55;21051;-77
2023/04/09 10:42:16;;;;;;;3.40;1.85;;;18.90;52.80;;;;;;2452045;56;21831;-72
2023/04/09 10:44:43;;;;;;;3.25;1.85;;;18.90;52.90;;;;;;2460452;55;21011;-70
2023/04/09 10:47:10;;;;;;;3.60;2.12;;;18.90;53.40;;;;;;2460013;55;20927;-72
2023/04/09 10:49:37;;;;;;;9.68;6.22;;;18.90;53.60;;;;;;2460563;55;21478;-75
2023/04/09 10:52:09;;;;;;;5.25;3.58;;;18.90;53.70;;;;;;2460185;55;20946;-72
2023/04/09 10:54:44;;;;;;;4.80;2.90;;;19.00;53.60;;;;;;2237411;56;21036;-70
2023/04/09 10:57:15;;;;;;;4.25;2.62;;;19.10;53.60;;;;;;2236543;55;21380;-72
2023/04/09 10:59:44;;;;;;;3.60;2.20;;;19.10;54.00;;;;;;2460454;55;21487;-79
2023/04/09 11:03:30;;;;;;;5.03;1.98;;;19.20;54.20;;;;;;2459797;55;20987;-76
2023/04/09 11:06:08;;;;;;;3.00;1.80;;;19.40;53.10;;;;;;2237095;55;21459;-76
2023/04/09 11:08:35;;;;;;;3.47;1.70;;;19.50;54.00;;;;;;2459950;55;21997;-75
2023/04/09 11:11:01;;;;;;;3.92;2.30;;;19.60;54.30;;;;;;2437271;55;20970;-74
2023/04/09 11:13:29;;;;;;;3.60;1.90;;;19.70;53.90;;;;;;2237088;55;21462;-78
2023/04/09 11:15:55;;;;;;;3.15;1.80;;;19.80;53.90;;;;;;2236864;55;21019;-77
2023/04/09 11:18:25;;;;;;;3.67;2.25;;;19.90;54.00;;;;;;2460419;55;21383;-75
2023/04/09 11:20:55;;;;;;;3.50;2.10;;;20.10;53.80;;;;;;2460731;55;21383;-72
2023/04/09 11:23:26;;;;;;;3.60;2.03;;;20.10;53.10;;;;;;2237171;55;20938;-76
2023/04/09 11:25:52;;;;;;;3.97;2.37;;;20.20;53.00;;;;;;2460644;55;21041;-73
2023/04/09 11:28:19;;;;;;;3.70;2.10;;;20.20;53.00;;;;;;2460524;55;20934;-70
2023/04/09 11:30:50;;;;;;;3.70;2.33;;;20.30;52.90;;;;;;2240983;55;21058;-74
2023/04/09 11:33:16;;;;;;;5.20;2.50;;;20.30;52.00;;;;;;2236879;55;21397;-77
2023/04/09 11:35:44;;;;;;;3.83;2.25;;;20.30;52.10;;;;;;2237408;55;20985;-76
2023/04/09 11:38:10;;;;;;;3.65;2.15;;;20.30;52.10;;;;;;2490634;54;21594;-76
2023/04/09 11:40:47;;;;;;;4.20;2.28;;;20.40;52.10;;;;;;2262382;55;20932;-75
2023/04/09 11:43:15;;;;;;;4.00;2.60;;;20.40;51.20;;;;;;2264628;56;21051;-73
2023/04/09 11:45:43;;;;;;;3.62;2.15;;;20.40;51.40;;;;;;2491135;54;21874;-72
2023/04/09 11:48:10;;;;;;;2.95;1.70;;;20.40;51.40;;;;;;2491118;54;20911;-75
2023/04/09 11:50:36;;;;;;;2.55;1.40;;;20.40;51.30;;;;;;2262821;55;20948;-74
2023/04/09 11:53:18;;;;;;;3.60;1.98;;;20.40;51.20;;;;;;2483407;55;20988;-75
2023/04/09 11:55:46;;;;;;;3.22;1.95;;;20.40;50.10;;;;;;2487155;54;20936;-74
2023/04/09 11:58:12;;;;;;;3.00;1.80;;;20.40;51.20;;;;;;2460021;55;20965;-74
2023/04/09 12:00:42;;;;;;;2.95;1.75;;;20.40;51.40;;;;;;2460584;55;20945;-72
2023/04/09 12:03:09;;;;;;;2.90;1.65;;;20.40;50.90;;;;;;2464368;55;21022;-74
2023/04/09 12:05:35;;;;;;;3.42;2.10;;;20.40;50.90;;;;;;2444692;55;20912;-77
2023/04/09 12:08:06;;;;;;;2.80;1.45;;;20.40;50.90;;;;;;2460756;55;20948;-75
2023/04/09 12:10:34;;;;;;;3.65;2.10;;;20.40;50.80;;;;;;2238002;56;21854;-73
2023/04/09 12:13:09;;;;;;;2.70;1.70;;;20.30;50.70;;;;;;2459906;55;21009;-78
2023/04/09 12:15:36;;;;;;;3.00;1.58;;;20.30;49.70;;;;;;2461107;55;21875;-76
2023/04/09 12:18:03;;;;;;;2.90;1.70;;;20.30;50.30;;;;;;2237604;56;21776;-77
2023/04/09 12:20:38;;;;;;;3.47;1.80;;;20.20;50.00;;;;;;2467798;55;20942;-77
2023/04/09 12:23:05;;;;;;;2.92;1.73;;;20.20;49.10;;;;;;2459767;55;21095;-78
2023/04/09 12:25:32;;;;;;;3.12;1.85;;;20.10;49.50;;;;;;2461404;55;20925;-74
2023/04/09 12:27:59;;;;;;;3.60;1.87;;;20.00;49.70;;;;;;2460787;55;20963;-75
2023/04/09 12:30:25;;;;;;;3.45;1.85;;;20.00;49.70;;;;;;2460680;55;21479;-75
2023/04/09 12:32:56;;;;;;;4.22;1.80;;;19.90;49.50;;;;;;2460284;55;20947;-77
2023/04/09 12:35:22;;;;;;;3.40;1.90;;;19.90;49.50;;;;;;2237318;56;20998;-75
2023/04/09 12:37:49;;;;;;;3.22;1.73;;;19.80;49.50;;;;;;2293088;55;101782;-78
2023/04/09 12:40:15;;;;;;;3.28;1.90;;;19.80;49.70;;;;;;2310832;55;21046;-80
2023/04/09 12:42:42;;;;;;;3.05;1.80;;;19.80;49.80;;;;;;2550312;54;21554;-78
2023/04/09 12:45:10;;;;;;;3.53;1.90;;;19.80;49.80;;;;;;2549237;54;21438;-75
2023/04/09 12:47:39;;;;;;;3.35;2.00;;;19.70;49.70;;;;;;2310896;55;20959;-75
2023/04/09 12:50:06;;;;;;;3.85;2.00;;;19.70;49.80;;;;;;2549883;54;21447;-75
2023/04/09 12:52:33;;;;;;;3.30;2.00;;;19.80;49.90;;;;;;2549839;54;21006;-79
2023/04/09 12:54:59;;;;;;;3.12;1.60;;;19.80;50.10;;;;;;2311436;55;21070;-78
2023/04/09 12:57:26;;;;;;;3.05;1.70;;;19.80;50.10;;;;;;2550354;54;20993;-79
2023/04/09 12:59:53;;;;;;;3.17;1.65;;;19.90;50.00;;;;;;2310026;55;21764;-78
2023/04/09 13:02:20;;;;;;;2.95;1.70;;;19.90;49.80;;;;;;2310701;55;21331;-79
2023/04/09 13:04:47;;;;;;;2.70;1.50;;;19.90;49.50;;;;;;2550984;54;20911;-74